createdAt,value
2019-05-30T00:01:04.272Z,21.30
2019-05-30T00:03:34.366Z,21.20
2019-05-30T00:06:04.670Z,21.20
2019-05-30T00:08:34.658Z,21.20
2019-05-30T00:11:04.835Z,21.20
2019-05-30T00:13:34.894Z,21.20
2019-05-30T00:16:05.616Z,21.20
2019-05-30T00:18:35.861Z,21.20
2019-05-30T00:21:06.118Z,21.20
2019-05-30T00:23:36.049Z,21.20
2019-05-30T00:26:06.069Z,21.20
2019-05-30T00:28:35.991Z,21.20
2019-05-30T00:31:06.635Z,21.20
2019-05-30T00:33:36.723Z,21.20
2019-05-30T00:36:06.665Z,21.20
2019-05-30T00:38:36.655Z,21.20
2019-05-30T00:41:06.648Z,21.20
2019-05-30T00:43:36.602Z,21.20
2019-05-30T00:46:06.467Z,21.20
2019-05-30T00:48:36.334Z,21.20
2019-05-30T00:51:06.762Z,21.20
2019-05-30T00:53:36.875Z,21.20
2019-05-30T00:56:06.889Z,21.20
2019-05-30T00:58:38.021Z,21.20
2019-05-30T01:01:08.023Z,21.10
2019-05-30T01:03:37.874Z,21.10
2019-05-30T01:06:07.768Z,21.10
2019-05-30T01:08:37.627Z,21.10
2019-05-30T01:11:07.563Z,21.10
2019-05-30T01:13:38.011Z,21.10
2019-05-30T01:16:07.890Z,21.10
2019-05-30T01:18:37.847Z,21.10
2019-05-30T01:21:07.788Z,21.10
2019-05-30T01:23:40.714Z,21.10
2019-05-30T01:26:10.647Z,21.10
2019-05-30T01:28:41.545Z,21.10
2019-05-30T01:31:11.798Z,21.10
2019-05-30T01:33:41.812Z,21.10
2019-05-30T01:36:11.720Z,21.10
2019-05-30T01:38:41.706Z,21.10
2019-05-30T01:41:11.518Z,21.10
2019-05-30T01:43:41.343Z,21.10
2019-05-30T01:46:11.272Z,21.10
2019-05-30T01:48:41.203Z,21.10
2019-05-30T01:51:11.065Z,21.10
2019-05-30T01:53:40.950Z,21.10
2019-05-30T01:56:10.918Z,21.10
2019-05-30T01:58:40.778Z,21.00
2019-05-30T02:01:23.826Z,21.00
2019-05-30T02:03:42.307Z,21.00
2019-05-30T02:06:12.237Z,21.00
2019-05-30T02:08:42.153Z,21.00
2019-05-30T02:11:12.082Z,21.00
2019-05-30T02:13:41.939Z,21.00
2019-05-30T02:16:11.823Z,21.00
2019-05-30T02:18:41.810Z,21.00
2019-05-30T02:21:11.669Z,21.00
2019-05-30T02:23:41.545Z,21.00
2019-05-30T02:26:11.410Z,21.00
2019-05-30T02:28:41.469Z,21.00
2019-05-30T02:31:12.251Z,21.00
2019-05-30T02:33:42.414Z,21.00
2019-05-30T02:36:12.789Z,21.00
2019-05-30T02:38:42.878Z,21.00
2019-05-30T02:41:13.901Z,20.90
2019-05-30T02:43:43.762Z,20.90
2019-05-30T02:46:13.687Z,20.90
2019-05-30T02:48:58.091Z,20.90
2019-05-30T02:51:15.324Z,20.90
2019-05-30T02:53:45.174Z,20.90
2019-05-30T02:56:15.042Z,20.90
2019-05-30T02:58:45.010Z,20.90
2019-05-30T03:01:14.911Z,20.90
2019-05-30T03:03:44.933Z,20.90
2019-05-30T03:06:14.772Z,20.90
2019-05-30T03:08:44.643Z,20.90
2019-05-30T03:11:15.581Z,20.90
2019-05-30T03:13:45.698Z,20.90
2019-05-30T03:16:15.583Z,20.90
2019-05-30T03:18:45.489Z,20.90
2019-05-30T03:21:15.958Z,20.90
2019-05-30T03:23:45.918Z,20.90
2019-05-30T03:26:16.741Z,20.90
2019-05-30T03:28:47.733Z,20.90
2019-05-30T03:31:27.688Z,20.90
2019-05-30T03:33:50.054Z,20.90
2019-05-30T03:36:29.526Z,20.90
2019-05-30T03:38:51.808Z,20.90
2019-05-30T03:41:21.661Z,20.90
2019-05-30T03:43:51.678Z,20.80
2019-05-30T03:46:24.651Z,20.80
2019-05-30T03:48:54.585Z,20.90
2019-05-30T03:51:25.609Z,20.90
2019-05-30T03:53:55.391Z,20.80
2019-05-30T03:56:32.346Z,20.80
2019-05-30T03:59:18.382Z,20.90
2019-05-30T04:01:56.786Z,20.80
2019-05-30T04:04:28.332Z,20.80
2019-05-30T04:07:02.551Z,20.80
2019-05-30T04:09:32.502Z,20.80
2019-05-30T04:12:20.009Z,20.80
2019-05-30T04:14:51.851Z,20.80
2019-05-30T04:17:21.750Z,20.80
2019-05-30T04:19:51.689Z,20.80
2019-05-30T04:22:21.543Z,20.80
2019-05-30T04:24:51.427Z,20.80
2019-05-30T04:27:21.774Z,20.80
2019-05-30T04:29:51.718Z,20.80
2019-05-30T04:32:21.657Z,20.80
2019-05-30T04:34:51.644Z,20.80
2019-05-30T04:37:21.659Z,20.80
2019-05-30T04:39:51.719Z,20.80
2019-05-30T04:42:21.652Z,20.80
2019-05-30T04:44:51.673Z,20.80
2019-05-30T04:47:21.567Z,20.80
2019-05-30T04:49:51.508Z,20.80
2019-05-30T04:52:24.724Z,20.80
2019-05-30T04:54:52.980Z,20.80
2019-05-30T04:57:26.751Z,20.80
2019-05-30T04:59:55.783Z,20.80
2019-05-30T05:02:25.842Z,20.80
2019-05-30T05:04:55.779Z,20.80
2019-05-30T05:07:25.784Z,20.80
2019-05-30T05:09:55.706Z,20.80
2019-05-30T05:12:25.706Z,20.80
2019-05-30T05:14:55.615Z,20.80
2019-05-30T05:17:25.569Z,20.80
2019-05-30T05:19:55.503Z,20.80
2019-05-30T05:22:25.379Z,20.80
2019-05-30T05:24:55.260Z,20.80
2019-05-30T05:27:25.317Z,20.80
2019-05-30T05:29:56.233Z,20.80
2019-05-30T05:32:26.154Z,20.80
2019-05-30T05:34:56.004Z,20.80
2019-05-30T05:37:25.874Z,20.70
2019-05-30T05:39:55.906Z,20.80
2019-05-30T05:42:28.524Z,20.70
2019-05-30T05:44:57.475Z,20.70
2019-05-30T05:47:27.336Z,20.70
2019-05-30T05:49:57.355Z,20.70
2019-05-30T05:52:27.371Z,20.70
2019-05-30T05:54:57.234Z,20.70
2019-05-30T05:57:27.210Z,20.70
2019-05-30T05:59:57.297Z,20.70
2019-05-30T06:02:27.266Z,20.70
2019-05-30T06:04:57.345Z,20.80
2019-05-30T06:07:28.511Z,20.70
2019-05-30T06:09:58.693Z,20.80
2019-05-30T06:12:28.644Z,20.80
2019-05-30T06:14:58.701Z,20.80
2019-05-30T06:17:29.341Z,20.80
2019-05-30T06:19:59.409Z,20.80
2019-05-30T06:22:29.327Z,20.80
2019-05-30T06:25:00.234Z,20.80
2019-05-30T06:27:30.192Z,20.80
2019-05-30T06:30:00.052Z,20.80
2019-05-30T06:32:29.936Z,20.80
2019-05-30T06:34:59.807Z,20.80
2019-05-30T06:37:29.782Z,20.80
2019-05-30T06:39:59.783Z,20.80
2019-05-30T06:42:30.286Z,20.80
2019-05-30T06:45:00.383Z,20.80
2019-05-30T06:47:30.518Z,20.80
2019-05-30T06:50:00.467Z,20.80
2019-05-30T06:52:32.098Z,20.80
2019-05-30T06:55:02.214Z,20.80
2019-05-30T06:57:32.144Z,20.80
2019-05-30T07:00:02.067Z,20.80
2019-05-30T07:02:32.607Z,20.80
2019-05-30T07:05:04.513Z,20.80
2019-05-30T07:07:34.951Z,20.80
2019-05-30T07:10:05.867Z,20.80
2019-05-30T07:12:35.852Z,20.80
2019-05-30T07:15:07.087Z,20.80
2019-05-30T07:17:38.153Z,20.80
2019-05-30T07:20:08.510Z,20.80
2019-05-30T07:22:38.477Z,20.80
2019-05-30T07:25:08.465Z,20.80
2019-05-30T07:27:38.346Z,20.80
2019-05-30T07:30:08.394Z,20.80
2019-05-30T07:32:38.285Z,20.80
2019-05-30T07:35:08.218Z,20.80
2019-05-30T07:37:38.104Z,20.80
2019-05-30T07:40:08.172Z,20.80
2019-05-30T07:42:38.106Z,20.80
2019-05-30T07:45:08.939Z,20.80
2019-05-30T07:47:38.825Z,20.80
2019-05-30T07:50:09.984Z,20.80
2019-05-30T07:52:40.060Z,20.80
2019-05-30T07:55:10.052Z,20.80
2019-05-30T07:57:41.546Z,20.80
2019-05-30T08:00:11.638Z,20.80
2019-05-30T08:02:41.640Z,20.80
2019-05-30T08:05:23.752Z,20.80
2019-05-30T08:07:45.538Z,20.80
2019-05-30T08:10:15.426Z,20.80
2019-05-30T08:12:45.285Z,20.80
2019-05-30T08:15:15.278Z,20.80
2019-05-30T08:17:46.348Z,20.80
2019-05-30T08:20:17.273Z,20.80
2019-05-30T08:22:47.379Z,20.80
2019-05-30T08:25:17.482Z,20.80
2019-05-30T08:27:47.336Z,20.80
2019-05-30T08:30:18.833Z,20.90
2019-05-30T08:32:48.762Z,20.90
2019-05-30T08:35:18.665Z,20.90
2019-05-30T08:37:48.526Z,20.90
2019-05-30T08:40:18.542Z,20.90
2019-05-30T08:42:48.518Z,20.90
2019-05-30T08:45:18.534Z,20.90
2019-05-30T08:47:48.427Z,20.90
2019-05-30T08:50:18.323Z,20.90
2019-05-30T08:52:48.264Z,20.90
2019-05-30T08:55:18.273Z,20.90
2019-05-30T08:57:48.236Z,20.90
2019-05-30T09:00:18.324Z,20.90
2019-05-30T09:02:48.184Z,20.90
2019-05-30T09:05:18.045Z,20.90
2019-05-30T09:07:47.917Z,20.90
2019-05-30T09:10:17.815Z,20.90
2019-05-30T09:12:49.624Z,21.00
2019-05-30T09:15:21.881Z,21.00
2019-05-30T09:17:51.032Z,21.00
2019-05-30T09:20:21.586Z,21.00
2019-05-30T09:22:51.769Z,21.00
2019-05-30T09:25:21.637Z,21.00
2019-05-30T09:27:51.517Z,21.00
2019-05-30T09:30:22.536Z,21.10
2019-05-30T09:32:52.474Z,21.10
2019-05-30T09:35:23.009Z,21.10
2019-05-30T09:37:52.910Z,21.10
2019-05-30T09:40:22.858Z,21.10
2019-05-30T09:42:52.746Z,21.10
2019-05-30T09:45:22.709Z,21.10
2019-05-30T09:47:52.634Z,21.10
2019-05-30T09:50:22.570Z,21.20
2019-05-30T09:52:52.658Z,21.20
2019-05-30T09:55:22.446Z,21.20
2019-05-30T09:57:52.385Z,21.20
2019-05-30T10:00:22.554Z,21.20
2019-05-30T10:02:52.688Z,21.20
2019-05-30T10:05:24.571Z,21.20
2019-05-30T10:07:54.358Z,21.20
2019-05-30T10:10:24.252Z,21.30
2019-05-30T10:12:54.210Z,21.30
2019-05-30T10:15:24.138Z,21.30
2019-05-30T10:17:54.572Z,21.30
2019-05-30T10:20:24.762Z,21.30
2019-05-30T10:22:54.737Z,21.30
2019-05-30T10:25:24.677Z,21.30
2019-05-30T10:27:54.921Z,21.30
2019-05-30T10:30:25.021Z,21.30
2019-05-30T10:32:55.945Z,21.40
2019-05-30T10:35:29.588Z,21.40
2019-05-30T10:37:57.723Z,21.40
2019-05-30T10:40:27.779Z,21.40
2019-05-30T10:42:57.650Z,21.40
2019-05-30T10:45:27.609Z,21.40
2019-05-30T10:47:57.675Z,21.50
2019-05-30T10:50:27.751Z,21.50
2019-05-30T10:52:57.713Z,21.50
2019-05-30T10:55:27.598Z,21.50
2019-05-30T10:57:59.538Z,21.50
2019-05-30T11:00:48.592Z,21.50
2019-05-30T11:03:19.533Z,21.60
2019-05-30T11:05:59.481Z,21.60
2019-05-30T11:08:29.838Z,21.60
2019-05-30T11:10:59.825Z,21.60
2019-05-30T11:13:29.758Z,21.60
2019-05-30T11:15:59.769Z,21.60
2019-05-30T11:18:29.687Z,21.60
2019-05-30T11:20:59.594Z,21.70
2019-05-30T11:23:29.465Z,21.70
2019-05-30T11:25:59.390Z,21.70
2019-05-30T11:28:29.242Z,21.70
2019-05-30T11:30:59.392Z,21.80
2019-05-30T11:33:29.237Z,21.80
2019-05-30T11:35:59.322Z,21.80
2019-05-30T11:38:29.321Z,21.80
2019-05-30T11:40:59.636Z,21.80
2019-05-30T11:43:29.596Z,21.80
2019-05-30T11:45:59.869Z,21.80
2019-05-30T11:48:29.849Z,21.80
2019-05-30T11:51:00.056Z,21.80
2019-05-30T11:53:30.151Z,21.80
2019-05-30T11:56:00.481Z,21.90
2019-05-30T11:58:30.630Z,21.90
2019-05-30T12:01:00.685Z,21.90
2019-05-30T12:03:30.682Z,21.90
2019-05-30T12:06:00.882Z,21.90
2019-05-30T12:08:30.886Z,21.90
2019-05-30T12:11:01.382Z,21.90
2019-05-30T12:13:31.546Z,21.90
2019-05-30T12:16:01.879Z,21.90
2019-05-30T12:18:31.964Z,21.90
2019-05-30T12:21:02.220Z,22.00
2019-05-30T12:23:32.153Z,22.00
2019-05-30T12:26:02.340Z,22.10
2019-05-30T12:28:33.406Z,22.10
2019-05-30T12:31:06.427Z,22.10
2019-05-30T12:33:35.020Z,22.00
2019-05-30T12:36:05.019Z,22.00
2019-05-30T12:38:34.831Z,22.00
2019-05-30T12:41:04.772Z,22.00
2019-05-30T12:43:34.696Z,22.00
2019-05-30T12:46:04.491Z,21.90
2019-05-30T12:48:34.524Z,21.90
2019-05-30T12:51:05.483Z,22.00
2019-05-30T12:53:35.558Z,22.00
2019-05-30T12:56:06.797Z,22.00
2019-05-30T12:58:36.886Z,22.00
2019-05-30T13:01:07.058Z,22.00
2019-05-30T13:03:37.411Z,22.00
2019-05-30T13:06:07.601Z,21.90
2019-05-30T13:08:37.646Z,21.90
2019-05-30T13:11:07.649Z,21.90
2019-05-30T13:13:37.582Z,21.90
2019-05-30T13:16:08.904Z,21.90
2019-05-30T13:18:39.206Z,21.90
2019-05-30T13:21:09.245Z,21.90
2019-05-30T13:23:39.266Z,21.90
2019-05-30T13:26:09.496Z,22.00
2019-05-30T13:28:39.549Z,22.00
2019-05-30T13:31:09.522Z,22.00
2019-05-30T13:33:39.377Z,21.90
2019-05-30T13:36:09.304Z,22.00
2019-05-30T13:38:39.366Z,22.00
2019-05-30T13:41:09.211Z,22.00
2019-05-30T13:43:39.283Z,21.90
2019-05-30T13:46:10.188Z,21.90
2019-05-30T13:48:40.223Z,21.90
2019-05-30T13:51:10.146Z,21.90
2019-05-30T13:53:40.159Z,21.90
2019-05-30T13:56:10.241Z,21.90
2019-05-30T13:58:40.155Z,21.80
2019-05-30T14:01:13.565Z,21.80
2019-05-30T14:03:41.697Z,21.80
2019-05-30T14:06:11.669Z,21.80
2019-05-30T14:08:42.180Z,21.80
2019-05-30T14:11:13.276Z,21.80
2019-05-30T14:13:43.545Z,21.80
2019-05-30T14:16:13.493Z,21.80
2019-05-30T14:18:43.468Z,21.80
2019-05-30T14:21:13.390Z,21.80
2019-05-30T14:23:43.409Z,21.80
2019-05-30T14:26:13.325Z,21.80
2019-05-30T14:28:43.186Z,21.80
2019-05-30T14:31:14.114Z,21.80
2019-05-30T14:33:43.966Z,21.80
2019-05-30T14:36:14.783Z,21.80
2019-05-30T14:38:57.726Z,21.70
2019-05-30T14:41:16.562Z,21.70
2019-05-30T14:43:46.561Z,21.70
2019-05-30T14:46:16.733Z,21.70
2019-05-30T14:48:46.823Z,21.80
2019-05-30T14:51:17.125Z,21.80
2019-05-30T14:53:47.082Z,21.80
2019-05-30T14:56:17.571Z,21.80
2019-05-30T14:58:47.595Z,21.90
2019-05-30T15:01:17.580Z,21.90
2019-05-30T15:03:47.694Z,21.90
2019-05-30T15:06:17.995Z,21.80
2019-05-30T15:08:48.088Z,21.80
2019-05-30T15:11:18.106Z,21.70
2019-05-30T15:13:48.046Z,21.70
2019-05-30T15:16:17.886Z,21.70
2019-05-30T15:18:47.841Z,21.70
2019-05-30T15:21:17.772Z,21.70
2019-05-30T15:23:47.710Z,21.70
2019-05-30T15:26:17.567Z,21.60
2019-05-30T15:28:47.425Z,21.60
2019-05-30T15:31:17.408Z,21.60
2019-05-30T15:33:47.339Z,21.60
2019-05-30T15:36:17.317Z,21.60
2019-05-30T15:38:47.563Z,21.60
2019-05-30T15:41:17.538Z,21.50
2019-05-30T15:43:47.393Z,21.50
2019-05-30T15:46:18.052Z,21.50
2019-05-30T15:48:48.120Z,21.50
2019-05-30T15:51:18.859Z,21.40
2019-05-30T15:53:49.082Z,21.40
2019-05-30T15:56:19.468Z,21.40
2019-05-30T15:58:49.481Z,21.40
2019-05-30T16:01:20.174Z,21.40
2019-05-30T16:03:50.274Z,21.40
2019-05-30T16:06:20.786Z,21.40
2019-05-30T16:08:51.921Z,21.40
2019-05-30T16:11:21.843Z,21.40
2019-05-30T16:13:51.774Z,21.40
2019-05-30T16:16:33.753Z,21.30
2019-05-30T16:18:53.374Z,21.30
2019-05-30T16:21:23.274Z,21.30
2019-05-30T16:23:53.170Z,21.30
2019-05-30T16:26:23.025Z,21.30
2019-05-30T16:28:52.999Z,21.30
2019-05-30T16:31:22.991Z,21.30
2019-05-30T16:33:52.870Z,21.30
2019-05-30T16:36:22.820Z,21.30
2019-05-30T16:38:52.797Z,21.20
2019-05-30T16:41:22.746Z,21.20
2019-05-30T16:43:52.706Z,21.20
2019-05-30T16:46:23.629Z,21.20
2019-05-30T16:48:53.600Z,21.20
2019-05-30T16:51:23.645Z,21.10
2019-05-30T16:53:54.739Z,21.10
2019-05-30T16:56:25.651Z,21.10
2019-05-30T16:58:55.670Z,21.10
2019-05-30T17:01:26.059Z,21.10
2019-05-30T17:03:56.083Z,21.10
2019-05-30T17:06:26.229Z,21.10
2019-05-30T17:08:56.235Z,21.20
2019-05-30T17:11:26.165Z,21.20
2019-05-30T17:13:56.037Z,21.30
2019-05-30T17:16:26.261Z,21.30
2019-05-30T17:18:56.299Z,21.30
2019-05-30T17:21:26.785Z,21.40
2019-05-30T17:23:56.861Z,21.40
2019-05-30T17:26:27.418Z,21.40
2019-05-30T17:28:59.031Z,21.40
2019-05-30T17:31:28.891Z,21.40
2019-05-30T17:33:58.969Z,21.40
2019-05-30T17:36:28.937Z,21.40
2019-05-30T17:38:58.903Z,21.40
2019-05-30T17:41:29.018Z,21.40
2019-05-30T17:43:59.053Z,21.40
2019-05-30T17:46:30.051Z,21.40
2019-05-30T17:49:01.036Z,21.40
2019-05-30T17:51:30.933Z,21.40
2019-05-30T17:54:00.862Z,21.40
2019-05-30T17:56:30.898Z,21.40
2019-05-30T17:59:00.824Z,21.40
2019-05-30T18:01:31.927Z,21.30
2019-05-30T18:04:01.811Z,21.30
2019-05-30T18:06:31.697Z,21.30
2019-05-30T18:09:01.629Z,21.30
2019-05-30T18:11:33.553Z,21.30
2019-05-30T18:14:03.561Z,21.30
2019-05-30T18:16:33.554Z,21.30
2019-05-30T18:19:03.460Z,21.30
2019-05-30T18:21:33.354Z,21.30
2019-05-30T18:24:03.277Z,21.30
2019-05-30T18:26:33.121Z,21.30
2019-05-30T18:29:03.018Z,21.30
2019-05-30T18:31:32.874Z,21.30
2019-05-30T18:34:02.828Z,21.30
2019-05-30T18:36:32.800Z,21.30
2019-05-30T18:39:02.831Z,21.30
2019-05-30T18:41:33.958Z,21.30
2019-05-30T18:44:23.011Z,21.30
2019-05-30T18:46:52.942Z,21.30
2019-05-30T18:49:23.058Z,21.30
2019-05-30T18:51:53.027Z,21.30
2019-05-30T18:54:22.957Z,21.30
2019-05-30T18:56:52.971Z,21.30
2019-05-30T18:59:22.934Z,21.30
2019-05-30T19:01:52.866Z,21.30
2019-05-30T19:04:23.007Z,21.30
2019-05-30T19:06:52.987Z,21.30
2019-05-30T19:09:22.849Z,21.30
2019-05-30T19:11:52.817Z,21.30
2019-05-30T19:14:22.822Z,21.30
2019-05-30T19:16:52.755Z,21.30
2019-05-30T19:19:22.762Z,21.30
2019-05-30T19:21:52.698Z,21.30
2019-05-30T19:24:22.711Z,21.30
2019-05-30T19:26:52.582Z,21.30
2019-05-30T19:29:22.605Z,21.30
2019-05-30T19:31:52.466Z,21.30
2019-05-30T19:34:22.423Z,21.30
2019-05-30T19:36:53.349Z,21.30
2019-05-30T19:39:23.274Z,21.30
2019-05-30T19:41:57.043Z,21.30
2019-05-30T19:44:24.699Z,21.30
2019-05-30T19:46:54.630Z,21.30
2019-05-30T19:49:24.894Z,21.30
2019-05-30T19:51:55.726Z,21.30
2019-05-30T19:54:25.676Z,21.30
2019-05-30T19:56:55.692Z,21.30
2019-05-30T19:59:25.553Z,21.30
2019-05-30T20:01:55.516Z,21.30
2019-05-30T20:04:25.377Z,21.30
2019-05-30T20:06:55.313Z,21.30
2019-05-30T20:09:25.260Z,21.30
2019-05-30T20:12:03.824Z,21.30
2019-05-30T20:14:26.741Z,21.30
2019-05-30T20:16:56.729Z,21.30
2019-05-30T20:19:26.672Z,21.30
2019-05-30T20:21:56.528Z,21.30
2019-05-30T20:24:26.387Z,21.30
2019-05-30T20:26:56.289Z,21.30
2019-05-30T20:29:26.234Z,21.30
2019-05-30T20:31:56.339Z,21.40
2019-05-30T20:34:26.516Z,21.40
2019-05-30T20:36:56.498Z,21.40
2019-05-30T20:39:26.508Z,21.40
2019-05-30T20:41:56.427Z,21.40
2019-05-30T20:44:26.381Z,21.30
2019-05-30T20:46:56.275Z,21.30
2019-05-30T20:49:26.229Z,21.30
2019-05-30T20:51:56.233Z,21.40
2019-05-30T20:54:26.094Z,21.40
2019-05-30T20:56:56.031Z,21.30
2019-05-30T20:59:26.006Z,21.30
2019-05-30T21:01:56.151Z,21.30
2019-05-30T21:04:26.060Z,21.30
2019-05-30T21:06:55.998Z,21.30
2019-05-30T21:09:29.194Z,21.30
2019-05-30T21:11:57.614Z,21.30
2019-05-30T21:14:28.274Z,21.30
2019-05-30T21:16:58.375Z,21.30
2019-05-30T21:19:29.232Z,21.30
2019-05-30T21:21:59.192Z,21.30
2019-05-30T21:24:29.125Z,21.30
2019-05-30T21:26:59.050Z,21.30
2019-05-30T21:29:28.900Z,21.30
2019-05-30T21:31:58.946Z,21.30
2019-05-30T21:34:28.967Z,21.30
2019-05-30T21:36:59.268Z,21.30
2019-05-30T21:39:30.205Z,21.30
2019-05-30T21:42:00.486Z,21.40
2019-05-30T21:44:30.533Z,21.30
2019-05-30T21:47:00.298Z,21.40
2019-05-30T21:49:30.338Z,21.40
2019-05-30T21:52:00.225Z,21.40
2019-05-30T21:54:30.170Z,21.40
2019-05-30T21:57:00.108Z,21.40
2019-05-30T21:59:30.034Z,21.40
2019-05-30T22:01:59.977Z,21.40
2019-05-30T22:04:29.890Z,21.30
2019-05-30T22:06:59.736Z,21.30
2019-05-30T22:09:29.574Z,21.30
2019-05-30T22:11:59.429Z,21.30
2019-05-30T22:14:29.365Z,21.30
2019-05-30T22:16:59.246Z,21.30
2019-05-30T22:19:29.102Z,21.30
2019-05-30T22:21:59.046Z,21.30
2019-05-30T22:24:28.963Z,21.20
2019-05-30T22:26:58.810Z,21.20
2019-05-30T22:29:28.662Z,21.20
2019-05-30T22:31:58.549Z,21.20
2019-05-30T22:34:28.389Z,21.20
2019-05-30T22:36:58.110Z,21.20
2019-05-30T22:39:28.034Z,21.20
2019-05-30T22:41:57.826Z,21.20
2019-05-30T22:44:27.678Z,21.20
2019-05-30T22:46:57.530Z,21.10
2019-05-30T22:49:27.393Z,21.10
2019-05-30T22:51:57.382Z,21.10
2019-05-30T22:54:27.369Z,21.10
2019-05-30T22:56:57.226Z,21.10
2019-05-30T22:59:27.070Z,21.10
2019-05-30T23:01:57.218Z,21.10
2019-05-30T23:04:27.256Z,21.10
2019-05-30T23:06:57.322Z,21.10
2019-05-30T23:09:27.165Z,21.10
2019-05-30T23:11:57.163Z,21.10
2019-05-30T23:14:27.052Z,21.10
2019-05-30T23:16:56.908Z,21.10
2019-05-30T23:19:26.844Z,21.10
2019-05-30T23:21:57.291Z,21.10
2019-05-30T23:24:27.245Z,21.00
2019-05-30T23:26:57.932Z,21.00
2019-05-30T23:29:27.921Z,21.00
2019-05-30T23:31:58.321Z,21.00
2019-05-30T23:34:28.302Z,21.00
2019-05-30T23:36:58.765Z,21.00
2019-05-30T23:39:28.762Z,21.00
2019-05-30T23:41:59.361Z,21.00
2019-05-30T23:44:29.525Z,21.00
2019-05-30T23:46:59.780Z,21.00
2019-05-30T23:49:29.733Z,21.00
2019-05-30T23:52:00.366Z,20.90
2019-05-30T23:54:31.516Z,21.00
2019-05-30T23:57:01.349Z,20.90
2019-05-30T23:59:31.246Z,20.90
